Time;durP1;ratioP1;P1;durP2;ratioP2;P2;SDS_P1;SDS_P2;PMS_P1;PMS_P2;Temp;Humidity;BMP_temperature;BMP_pressure;BME280_temperature;BME280_humidity;BME280_pressure;Samples;Min_cycle;Max_cycle;Signal;HPM_P1;HPM_P2
2022/11/28 00:00:30;;;;;;;46.03;13.82;;;4.30;89.80;;;;;;5015733;28;20038;-60
2022/11/28 00:02:56;;;;;;;61.95;13.75;;;4.40;90.00;;;;;;5014887;28;20053;-62
2022/11/28 00:05:22;;;;;;;38.55;13.68;;;4.40;90.00;;;;;;5015372;28;20053;-61
2022/11/28 00:07:47;;;;;;;28.88;12.60;;;4.40;90.00;;;;;;5015104;28;20303;-61
2022/11/28 00:10:13;;;;;;;31.98;13.30;;;4.40;90.00;;;;;;5017786;28;20021;-62
2022/11/28 00:12:38;;;;;;;35.42;14.13;;;4.50;90.00;;;;;;5017293;28;20029;-60
2022/11/28 00:15:05;;;;;;;49.78;13.07;;;4.50;90.00;;;;;;5019477;28;20030;-60
2022/11/28 00:17:30;;;;;;;38.30;13.27;;;4.50;90.00;;;;;;5019950;28;20103;-61
2022/11/28 00:19:56;;;;;;;26.40;13.90;;;4.50;89.90;;;;;;5017780;28;20119;-61
2022/11/28 00:22:22;;;;;;;38.70;13.45;;;4.60;89.90;;;;;;5015580;28;20073;-62
2022/11/28 00:24:48;;;;;;;23.88;12.73;;;4.60;89.80;;;;;;5016297;28;20488;-61
2022/11/28 00:27:13;;;;;;;37.35;12.85;;;4.60;89.60;;;;;;5016706;28;20507;-61
2022/11/28 00:29:39;;;;;;;24.08;12.48;;;4.60;90.20;;;;;;5016232;28;20056;-62
2022/11/28 00:32:05;;;;;;;20.17;12.65;;;4.60;89.60;;;;;;5015718;28;20088;-62
2022/11/28 00:34:31;;;;;;;24.70;12.27;;;4.60;89.60;;;;;;5016049;28;20050;-62
2022/11/28 00:36:57;;;;;;;55.65;13.38;;;4.60;89.60;;;;;;5015356;28;20120;-61
2022/11/28 00:39:22;;;;;;;43.22;12.98;;;4.60;89.50;;;;;;5015775;28;20038;-62
2022/11/28 00:41:48;;;;;;;40.60;13.05;;;4.60;89.30;;;;;;5015066;28;20061;-61
2022/11/28 00:44:14;;;;;;;45.35;13.82;;;4.60;89.20;;;;;;5017310;28;20624;-62
2022/11/28 00:46:40;;;;;;;40.97;13.82;;;4.50;89.00;;;;;;5016105;28;20030;-61
2022/11/28 00:49:06;;;;;;;29.38;13.15;;;4.50;89.00;;;;;;5014996;28;20057;-62
2022/11/28 00:51:34;;;;;;;25.90;13.32;;;4.50;89.10;;;;;;5016268;28;20069;-60
2022/11/28 00:54:02;;;;;;;41.65;13.57;;;4.40;89.30;;;;;;5016022;28;20042;-61
2022/11/28 00:56:33;;;;;;;22.40;13.45;;;4.40;89.60;;;;;;5015064;28;20034;-61
2022/11/28 00:58:59;;;;;;;21.77;12.25;;;4.30;89.80;;;;;;5017277;28;20432;-62
2022/11/28 01:01:31;;;;;;;25.83;12.82;;;4.30;89.90;;;;;;5014419;28;20472;-61
2022/11/28 01:03:59;;;;;;;17.90;11.82;;;4.30;90.00;;;;;;5015320;28;20509;-62
2022/11/28 01:06:30;;;;;;;19.88;12.10;;;4.30;90.00;;;;;;5016940;28;20398;-61
2022/11/28 01:09:01;;;;;;;20.10;12.60;;;4.30;90.00;;;;;;5016369;28;20032;-62
2022/11/28 01:11:28;;;;;;;16.88;11.80;;;4.40;90.10;;;;;;5018566;28;20113;-61
2022/11/28 01:13:59;;;;;;;17.13;11.43;;;4.40;90.10;;;;;;5013605;28;20403;-61
2022/11/28 01:16:25;;;;;;;18.40;12.27;;;4.40;90.10;;;;;;5015856;28;20040;-62
2022/11/28 01:18:51;;;;;;;20.98;12.07;;;4.40;90.00;;;;;;5013626;28;20049;-62
2022/11/28 01:21:17;;;;;;;20.42;12.05;;;4.40;90.00;;;;;;5015148;28;20026;-62
2022/11/28 01:23:43;;;;;;;20.80;12.77;;;4.40;90.00;;;;;;5015242;28;20060;-61
2022/11/28 01:26:13;;;;;;;17.73;12.07;;;4.40;90.10;;;;;;5015859;28;20447;-60
2022/11/28 01:28:39;;;;;;;20.70;12.45;;;4.40;90.50;;;;;;5014551;28;20057;-62
2022/11/28 01:31:10;;;;;;;18.05;11.05;;;4.40;90.10;;;;;;5015450;28;20060;-62
2022/11/28 01:33:36;;;;;;;20.10;12.20;;;4.40;90.10;;;;;;5015683;28;20126;-61
2022/11/28 01:36:02;;;;;;;20.30;11.60;;;4.50;90.10;;;;;;5015885;28;20069;-61
2022/11/28 01:38:28;;;;;;;20.00;12.75;;;4.50;90.10;;;;;;5014220;28;20535;-60
2022/11/28 01:40:54;;;;;;;22.17;12.75;;;4.50;90.00;;;;;;5015367;28;20061;-61
2022/11/28 01:43:21;;;;;;;18.25;11.57;;;4.50;90.00;;;;;;5012130;28;20092;-61
2022/11/28 01:45:47;;;;;;;22.38;13.10;;;4.50;90.00;;;;;;5014958;28;20045;-60
2022/11/28 01:48:17;;;;;;;18.83;11.95;;;4.50;90.00;;;;;;5016078;28;20033;-61
2022/11/28 01:50:45;;;;;;;15.80;10.57;;;4.50;90.00;;;;;;5013354;28;20516;-61
2022/11/28 01:53:12;;;;;;;18.05;12.48;;;4.50;90.00;;;;;;5014943;28;20045;-62
2022/11/28 01:55:50;;;;;;;17.95;12.20;;;4.50;90.10;;;;;;5013718;28;20049;-61
2022/11/28 01:58:15;;;;;;;18.20;11.30;;;4.50;90.00;;;;;;5014094;28;20583;-61
2022/11/28 02:00:41;;;;;;;16.15;11.13;;;4.50;90.00;;;;;;5015708;28;20321;-60
2022/11/28 02:03:09;;;;;;;19.95;13.23;;;4.50;90.00;;;;;;5017607;28;20040;-61
2022/11/28 02:05:35;;;;;;;18.30;12.23;;;4.50;90.00;;;;;;5014210;28;20038;-60
2022/11/28 02:08:01;;;;;;;17.88;12.18;;;4.40;89.80;;;;;;5015793;28;20566;-61
2022/11/28 02:10:35;;;;;;;18.20;11.90;;;4.50;90.00;;;;;;5015375;28;20408;-61
2022/11/28 02:13:10;;;;;;;18.83;12.23;;;4.50;90.50;;;;;;5017286;28;20033;-60
2022/11/28 02:15:54;;;;;;;;;;;4.50;90.10;;;;;;5017498;28;20046;-61
2022/11/28 02:18:35;;;;;;;16.80;11.23;;;4.50;90.20;;;;;;5017809;28;19910;-62
2022/11/28 02:21:03;;;;;;;17.80;11.65;;;4.50;90.00;;;;;;5014229;28;20563;-61
2022/11/28 02:24:00;;;;;;;19.23;12.55;;;4.60;90.00;;;;;;5015071;28;20034;-60
2022/11/28 02:26:49;;;;;;;17.45;11.90;;;4.60;90.10;;;;;;5012742;28;20386;-61
2022/11/28 02:29:46;;;;;;;16.85;11.48;;;4.60;89.90;;;;;;5015360;28;20157;-61
2022/11/28 02:32:24;;;;;;;16.50;11.50;;;4.60;89.80;;;;;;5014776;28;20034;-62
2022/11/28 02:35:08;;;;;;;17.13;11.65;;;4.60;89.80;;;;;;5012896;28;20033;-60
2022/11/28 02:37:38;;;;;;;19.25;12.75;;;4.60;90.00;;;;;;5014837;28;20039;-61
2022/11/28 02:40:09;;;;;;;16.92;11.40;;;4.60;90.00;;;;;;5015679;28;20446;-62
2022/11/28 02:42:49;;;;;;;19.13;12.30;;;4.60;90.00;;;;;;5013876;28;20034;-60
2022/11/28 02:45:34;;;;;;;18.80;12.13;;;4.60;90.00;;;;;;5014779;28;20069;-61
2022/11/28 02:48:07;;;;;;;16.73;11.63;;;4.60;90.00;;;;;;5014275;28;20048;-60
2022/11/28 02:50:46;;;;;;;15.35;11.07;;;4.60;89.90;;;;;;5011873;28;20063;-61
2022/11/28 02:53:17;;;;;;;14.85;10.30;;;4.60;90.00;;;;;;5015041;28;20034;-62
2022/11/28 02:55:43;;;;;;;15.57;11.07;;;4.60;90.00;;;;;;5014840;28;20121;-61
2022/11/28 02:58:11;;;;;;;14.02;10.23;;;4.60;90.00;;;;;;5012364;28;20124;-61
2022/11/28 03:00:39;;;;;;;14.85;9.93;;;4.60;90.00;;;;;;5010934;28;20029;-61
2022/11/28 03:03:33;;;;;;;15.70;10.85;;;4.70;90.00;;;;;;5013665;28;20042;-62
2022/11/28 03:06:30;;;;;;;14.10;10.18;;;4.70;90.00;;;;;;5013533;28;20052;-61
2022/11/28 03:09:01;;;;;;;15.88;10.57;;;4.80;89.90;;;;;;5012412;28;20566;-62
2022/11/28 03:11:48;;;;;;;17.80;12.02;;;4.80;89.80;;;;;;5015361;28;20026;-62
2022/11/28 03:14:35;;;;;;;21.23;12.35;;;4.80;89.70;;;;;;5016546;28;20029;-61
2022/11/28 03:17:22;;;;;;;40.20;13.13;;;4.90;89.80;;;;;;5016119;28;20038;-62
2022/11/28 03:19:48;;;;;;;22.02;12.30;;;4.80;89.30;;;;;;5012577;28;20079;-60
2022/11/28 03:22:43;;;;;;;23.13;12.57;;;4.80;89.20;;;;;;5013170;28;20038;-61
2022/11/28 03:25:26;;;;;;;17.30;11.25;;;4.80;89.40;;;;;;4995263;28;20117;-61
2022/11/28 03:28:14;;;;;;;17.58;11.40;;;4.80;89.40;;;;;;5012537;28;20033;-60
2022/11/28 03:31:01;;;;;;;25.33;11.95;;;4.80;89.70;;;;;;5002747;28;20078;-60
2022/11/28 03:33:30;;;;;;;25.38;13.23;;;4.80;89.60;;;;;;5012938;28;20026;-60
2022/11/28 03:36:03;;;;;;;33.92;13.48;;;4.80;89.60;;;;;;5014040;28;20037;-60
2022/11/28 03:38:53;;;;;;;18.73;12.07;;;4.80;89.60;;;;;;5013716;28;20435;-61
2022/11/28 03:41:30;;;;;;;25.88;13.00;;;4.90;89.60;;;;;;5010136;28;20033;-60
2022/11/28 03:43:58;;;;;;;20.17;12.98;;;4.90;89.60;;;;;;5014314;28;20135;-60
2022/11/28 03:46:30;;;;;;;19.27;12.30;;;4.90;89.60;;;;;;5013186;28;20038;-59
2022/11/28 03:48:57;;;;;;;17.33;11.50;;;4.90;90.00;;;;;;5013810;28;20033;-61
2022/11/28 03:51:32;;;;;;;16.45;11.60;;;4.90;89.40;;;;;;5012942;28;20030;-60
2022/11/28 03:54:02;;;;;;;16.33;11.10;;;4.90;89.30;;;;;;5013185;28;20521;-60
2022/11/28 03:56:31;;;;;;;16.83;10.73;;;5.00;89.10;;;;;;5012091;28;20537;-60
2022/11/28 03:59:07;;;;;;;15.32;10.82;;;4.90;88.90;;;;;;5012482;28;20181;-61
2022/11/28 04:02:00;;;;;;;16.10;10.63;;;4.90;88.90;;;;;;5012383;28;20041;-62
2022/11/28 04:04:35;;;;;;;18.00;11.32;;;5.00;89.00;;;;;;5013486;28;20543;-62
2022/11/28 04:07:29;;;;;;;17.75;12.00;;;4.90;88.80;;;;;;5013962;28;20073;-62
2022/11/28 04:10:10;;;;;;;16.60;11.45;;;4.90;88.90;;;;;;5014194;28;20468;-61
2022/11/28 04:13:04;;;;;;;15.90;10.95;;;4.90;88.70;;;;;;5016309;28;20045;-59
2022/11/28 04:15:49;;;;;;;18.48;11.73;;;4.80;88.90;;;;;;5020456;28;20412;-60
2022/11/28 04:18:21;;;;;;;17.40;11.52;;;4.80;88.90;;;;;;5019425;28;20052;-60
2022/11/28 04:20:57;;;;;;;18.38;11.45;;;4.80;89.10;;;;;;5015907;28;20034;-61
2022/11/28 04:23:24;;;;;;;16.60;11.25;;;4.80;89.10;;;;;;5015026;28;20095;-62
2022/11/28 04:25:55;;;;;;;17.20;11.68;;;4.80;89.20;;;;;;5015650;28;20547;-60
2022/11/28 04:28:25;;;;;;;16.42;10.95;;;4.80;89.10;;;;;;5016643;28;20044;-61
2022/11/28 04:30:55;;;;;;;16.20;10.80;;;4.80;89.10;;;;;;5016805;28;20037;-62
2022/11/28 04:33:23;;;;;;;16.45;10.77;;;4.80;88.90;;;;;;5016750;28;20048;-61
2022/11/28 04:35:52;;;;;;;15.65;10.68;;;4.90;89.00;;;;;;5015304;28;20042;-61
2022/11/28 04:38:20;;;;;;;15.82;10.95;;;4.80;89.90;;;;;;5018141;28;20509;-60
2022/11/28 04:40:59;;;;;;;18.52;11.80;;;4.80;89.10;;;;;;5015766;28;20057;-61
2022/11/28 04:43:33;;;;;;;40.03;23.92;;;4.80;89.10;;;;;;5019110;28;20042;-62
2022/11/28 04:46:14;;;;;;;24.33;15.38;;;4.80;89.00;;;;;;5018708;28;20044;-61
2022/11/28 04:48:40;;;;;;;19.30;12.98;;;4.80;89.00;;;;;;5018379;28;20030;-61
2022/11/28 04:51:23;;;;;;;18.85;11.90;;;4.80;89.00;;;;;;5019192;28;20038;-62
2022/11/28 04:53:55;;;;;;;29.42;16.77;;;4.80;89.00;;;;;;5018405;28;20034;-61
2022/11/28 04:56:27;;;;;;;38.83;22.67;;;4.80;88.90;;;;;;5016202;28;20447;-61
2022/11/28 04:58:52;;;;;;;19.67;12.68;;;4.80;88.90;;;;;;5015912;28;20096;-62
2022/11/28 05:01:24;;;;;;;18.63;12.35;;;4.80;88.80;;;;;;5014978;28;20049;-60
2022/11/28 05:03:50;;;;;;;19.98;12.77;;;4.80;88.90;;;;;;5016793;28;20117;-62
2022/11/28 05:06:31;;;;;;;21.23;13.57;;;4.80;89.00;;;;;;5016623;28;20088;-61
2022/11/28 05:08:57;;;;;;;20.02;12.40;;;4.80;88.90;;;;;;5014377;28;20038;-62
2022/11/28 05:11:23;;;;;;;20.95;13.32;;;4.80;88.90;;;;;;5013720;28;20102;-62
2022/11/28 05:13:49;;;;;;;19.00;12.77;;;4.80;89.00;;;;;;5014710;28;20030;-63
2022/11/28 05:16:15;;;;;;;18.83;12.30;;;4.70;89.10;;;;;;5015387;28;20508;-61
2022/11/28 05:18:41;;;;;;;19.15;11.57;;;4.70;89.30;;;;;;5015946;28;20157;-62
2022/11/28 05:21:07;;;;;;;16.60;11.43;;;4.70;89.40;;;;;;5011911;28;20049;-62
2022/11/28 05:23:39;;;;;;;16.83;11.07;;;4.70;89.30;;;;;;5016005;28;20029;-60
2022/11/28 05:26:17;;;;;;;18.60;11.68;;;4.70;89.20;;;;;;5017127;28;20042;-62
2022/11/28 05:28:44;;;;;;;22.60;12.13;;;4.70;89.30;;;;;;5018975;28;20390;-60
2022/11/28 05:31:11;;;;;;;22.67;13.00;;;4.70;89.30;;;;;;5000980;28;20030;-59
2022/11/28 05:33:36;;;;;;;47.97;13.40;;;4.70;89.40;;;;;;5017622;28;20412;-60
2022/11/28 05:36:07;;;;;;;22.13;12.43;;;4.70;89.30;;;;;;5018283;28;20038;-60
2022/11/28 05:38:33;;;;;;;22.50;12.30;;;4.70;89.40;;;;;;5017745;28;20037;-61
2022/11/28 05:41:00;;;;;;;24.50;12.82;;;4.70;89.50;;;;;;5000080;28;20033;-61
2022/11/28 05:43:26;;;;;;;27.38;13.80;;;4.70;89.60;;;;;;5017177;28;20653;-61
2022/11/28 05:45:52;;;;;;;21.40;13.25;;;4.70;89.70;;;;;;5017475;28;20044;-61
2022/11/28 05:48:18;;;;;;;20.17;11.90;;;4.70;89.80;;;;;;5017744;28;20883;-62
2022/11/28 05:50:44;;;;;;;20.08;13.43;;;4.70;90.20;;;;;;5017047;28;20057;-62
2022/11/28 05:53:10;;;;;;;19.25;11.55;;;4.70;89.60;;;;;;5017458;28;20409;-60
2022/11/28 05:55:38;;;;;;;18.00;11.98;;;4.80;89.60;;;;;;5018248;28;20040;-61
2022/11/28 05:58:05;;;;;;;15.95;10.82;;;4.80;89.30;;;;;;5017637;28;20123;-60
2022/11/28 06:00:31;;;;;;;16.25;10.98;;;4.80;89.10;;;;;;5016909;28;20506;-60
2022/11/28 06:02:57;;;;;;;16.55;11.20;;;4.80;89.00;;;;;;5017332;28;20149;-60
2022/11/28 06:05:24;;;;;;;15.93;10.77;;;4.80;88.90;;;;;;5016432;28;20509;-60
2022/11/28 06:07:49;;;;;;;19.70;12.55;;;4.70;88.90;;;;;;5014690;28;20042;-60
2022/11/28 06:10:15;;;;;;;17.88;11.88;;;4.80;89.10;;;;;;5014117;28;20053;-60
2022/11/28 06:12:40;;;;;;;23.52;13.02;;;4.70;89.00;;;;;;5011995;28;20045;-62
2022/11/28 06:15:07;;;;;;;19.27;12.55;;;4.70;89.00;;;;;;5016123;28;20033;-60
2022/11/28 06:17:33;;;;;;;20.42;12.77;;;4.70;89.00;;;;;;4999436;28;20382;-62
2022/11/28 06:19:58;;;;;;;18.52;12.40;;;4.70;89.10;;;;;;5014526;28;20040;-63
2022/11/28 06:22:24;;;;;;;18.50;11.60;;;4.60;89.10;;;;;;5014588;28;20030;-60
2022/11/28 06:24:49;;;;;;;20.85;12.32;;;4.70;89.30;;;;;;5014805;28;20034;-60
2022/11/28 06:27:15;;;;;;;19.92;12.70;;;4.60;89.20;;;;;;5015133;28;20045;-60
2022/11/28 06:29:40;;;;;;;20.75;12.70;;;4.70;89.30;;;;;;5014652;28;20564;-61
2022/11/28 06:32:06;;;;;;;19.55;12.60;;;4.70;89.30;;;;;;5015186;28;20037;-62
2022/11/28 06:34:32;;;;;;;20.17;12.07;;;4.60;89.20;;;;;;5013687;28;20537;-62
2022/11/28 06:36:57;;;;;;;19.38;12.20;;;4.70;89.20;;;;;;5014579;28;20120;-60
2022/11/28 06:39:23;;;;;;;18.98;12.23;;;4.60;89.50;;;;;;5014763;28;20505;-61
2022/11/28 06:41:49;;;;;;;21.20;13.07;;;4.60;89.00;;;;;;5014867;28;20038;-61
2022/11/28 06:44:15;;;;;;;19.50;12.63;;;4.60;89.10;;;;;;5013382;28;20396;-60
2022/11/28 06:46:41;;;;;;;24.27;12.48;;;4.70;89.10;;;;;;5014787;28;20610;-61
2022/11/28 06:49:09;;;;;;;21.00;13.55;;;4.60;89.10;;;;;;5012809;28;20401;-61
2022/11/28 06:51:34;;;;;;;17.25;11.73;;;4.60;89.10;;;;;;5014667;28;20405;-60
2022/11/28 06:54:00;;;;;;;15.13;10.80;;;4.60;89.00;;;;;;5015352;28;20037;-61
2022/11/28 06:56:26;;;;;;;16.92;11.68;;;4.60;88.90;;;;;;5012673;28;20562;-61
2022/11/28 06:58:56;;;;;;;18.35;12.02;;;4.50;88.90;;;;;;5015369;28;20400;-60
2022/11/28 07:01:23;;;;;;;18.38;12.23;;;4.60;88.90;;;;;;5014477;28;20082;-61
2022/11/28 07:03:50;;;;;;;19.25;12.70;;;4.60;89.00;;;;;;5015331;28;20188;-60
2022/11/28 07:06:18;;;;;;;17.73;11.98;;;4.60;89.10;;;;;;5016837;28;20034;-60
2022/11/28 07:08:43;;;;;;;19.60;12.15;;;4.50;89.00;;;;;;5016113;28;20034;-61
2022/11/28 07:11:21;;;;;;;20.88;12.70;;;4.60;89.10;;;;;;5017328;28;20045;-60
2022/11/28 07:13:47;;;;;;;21.92;12.90;;;4.50;89.20;;;;;;5016483;28;20032;-61
2022/11/28 07:16:24;;;;;;;22.60;13.40;;;4.50;89.30;;;;;;5017347;28;20053;-61
2022/11/28 07:18:50;;;;;;;22.23;14.27;;;4.60;89.50;;;;;;5015079;28;20037;-60
2022/11/28 07:21:16;;;;;;;22.10;12.63;;;4.60;89.40;;;;;;5014175;28;20052;-60
2022/11/28 07:23:43;;;;;;;25.02;16.48;;;4.60;89.40;;;;;;5014130;28;20077;-62
2022/11/28 07:26:10;;;;;;;23.58;13.15;;;4.60;89.40;;;;;;5014535;28;20045;-60
2022/11/28 07:28:36;;;;;;;22.83;13.60;;;4.60;89.40;;;;;;5014072;28;20413;-61
2022/11/28 07:31:05;;;;;;;23.23;13.63;;;4.70;89.40;;;;;;5014472;28;20041;-61
2022/11/28 07:33:32;;;;;;;22.98;13.80;;;4.70;89.30;;;;;;5014110;28;20033;-63
2022/11/28 07:36:02;;;;;;;21.45;13.68;;;4.70;89.30;;;;;;5014072;28;20322;-62
2022/11/28 07:38:28;;;;;;;20.98;13.30;;;4.80;89.30;;;;;;5014729;28;20116;-60
2022/11/28 07:40:53;;;;;;;22.52;13.07;;;4.80;89.20;;;;;;5013056;28;20045;-61
2022/11/28 07:43:19;;;;;;;19.30;12.45;;;4.80;89.10;;;;;;5011547;28;20120;-60
2022/11/28 07:45:48;;;;;;;18.63;12.38;;;4.80;89.00;;;;;;5014311;28;20048;-60
2022/11/28 07:48:16;;;;;;;19.00;12.50;;;4.80;88.90;;;;;;5015902;28;20042;-60
2022/11/28 07:50:42;;;;;;;19.13;12.75;;;4.90;88.90;;;;;;5018767;28;20049;-60
2022/11/28 07:53:07;;;;;;;20.17;13.27;;;4.80;88.90;;;;;;5017139;28;20440;-61
2022/11/28 07:55:35;;;;;;;19.75;12.98;;;4.90;88.80;;;;;;4998174;28;20052;-60
2022/11/28 07:58:00;;;;;;;21.48;14.13;;;4.90;88.70;;;;;;5017677;28;20405;-61
2022/11/28 08:00:26;;;;;;;22.92;15.18;;;4.90;88.70;;;;;;5017800;28;20038;-63
2022/11/28 08:02:51;;;;;;;24.70;14.93;;;4.90;88.60;;;;;;5018286;28;20030;-61
2022/11/28 08:05:17;;;;;;;24.95;14.85;;;5.00;88.70;;;;;;5017202;28;20073;-60
2022/11/28 08:07:43;;;;;;;21.65;13.38;;;5.00;88.60;;;;;;5016366;28;20290;-62
2022/11/28 08:10:08;;;;;;;23.50;14.30;;;5.00;88.60;;;;;;5017709;28;20115;-60
2022/11/28 08:12:34;;;;;;;18.85;13.02;;;5.00;88.60;;;;;;5011613;28;20189;-59
2022/11/28 08:14:59;;;;;;;18.08;12.00;;;5.00;88.50;;;;;;5019290;28;20428;-60
2022/11/28 08:17:25;;;;;;;19.60;13.05;;;5.10;88.50;;;;;;5018117;28;20528;-61
2022/11/28 08:19:51;;;;;;;20.90;13.23;;;5.10;88.50;;;;;;5017789;28;20036;-62
2022/11/28 08:22:16;;;;;;;21.35;12.98;;;5.10;88.40;;;;;;5016641;28;20042;-61
2022/11/28 08:24:42;;;;;;;18.70;12.75;;;5.10;88.40;;;;;;5015020;28;20165;-62
2022/11/28 08:27:07;;;;;;;14.63;10.90;;;5.10;88.40;;;;;;5016249;28;20513;-60
2022/11/28 08:29:34;;;;;;;16.52;10.93;;;5.10;88.50;;;;;;5017282;28;20133;-61
2022/11/28 08:32:00;;;;;;;14.32;9.90;;;5.10;88.60;;;;;;5019678;28;20125;-60
2022/11/28 08:34:25;;;;;;;17.77;11.20;;;5.10;88.60;;;;;;5014316;28;20041;-61
2022/11/28 08:36:51;;;;;;;14.75;10.63;;;5.10;88.60;;;;;;5017337;28;20040;-62
2022/11/28 08:39:16;;;;;;;17.27;10.88;;;5.20;88.40;;;;;;5017804;28;20758;-61
2022/11/28 08:41:42;;;;;;;15.52;10.68;;;5.20;88.40;;;;;;5017051;28;20522;-62
2022/11/28 08:44:07;;;;;;;13.40;10.15;;;5.20;88.20;;;;;;5016645;28;20267;-62
2022/11/28 08:46:33;;;;;;;14.82;10.52;;;5.20;88.30;;;;;;5016533;28;20046;-62
2022/11/28 08:49:00;;;;;;;14.35;10.48;;;5.20;88.30;;;;;;5016517;28;20629;-62
2022/11/28 08:51:28;;;;;;;16.92;10.40;;;5.20;88.20;;;;;;5017786;28;20501;-61
2022/11/28 08:53:54;;;;;;;14.60;10.68;;;5.20;88.20;;;;;;5016744;28;20041;-62
2022/11/28 08:56:20;;;;;;;14.77;10.77;;;5.20;88.20;;;;;;5016938;28;20061;-62
2022/11/28 08:58:46;;;;;;;13.77;10.60;;;5.20;88.20;;;;;;4996251;28;20114;-61
2022/11/28 09:01:20;;;;;;;14.27;10.73;;;5.20;88.10;;;;;;5015449;28;20101;-62
2022/11/28 09:03:46;;;;;;;16.13;10.88;;;5.20;88.20;;;;;;5013671;28;20030;-63
2022/11/28 09:06:13;;;;;;;17.20;11.30;;;5.30;88.30;;;;;;5019246;28;20042;-63
2022/11/28 09:08:38;;;;;;;18.15;11.73;;;5.20;88.40;;;;;;5019415;28;20167;-60
2022/11/28 09:11:13;;;;;;;14.05;10.32;;;5.30;88.60;;;;;;5016572;28;20033;-61
2022/11/28 09:13:39;;;;;;;;;;;5.30;88.60;;;;;;5019204;28;20470;-62
2022/11/28 09:16:05;;;;;;;16.92;10.55;;;5.30;88.70;;;;;;5019520;28;19917;-62
2022/11/28 09:18:31;;;;;;;15.07;10.10;;;5.30;88.40;;;;;;5016100;28;20090;-62
2022/11/28 09:21:01;;;;;;;17.50;11.05;;;5.30;88.50;;;;;;5017496;28;20038;-61
2022/11/28 09:23:28;;;;;;;15.13;10.38;;;5.30;88.70;;;;;;5017020;28;20036;-62
2022/11/28 09:25:54;;;;;;;14.02;11.05;;;5.40;88.70;;;;;;5015677;28;20049;-62
2022/11/28 09:28:20;;;;;;;14.73;11.30;;;5.40;88.90;;;;;;5016754;28;20033;-63
2022/11/28 09:30:45;;;;;;;15.38;11.07;;;5.40;88.90;;;;;;5016890;28;20523;-59
2022/11/28 09:33:12;;;;;;;27.27;19.45;;;5.40;89.00;;;;;;5014697;28;20275;-62
2022/11/28 09:35:38;;;;;;;19.83;12.30;;;5.50;89.10;;;;;;5016953;28;20144;-60
2022/11/28 09:38:05;;;;;;;18.42;14.13;;;5.50;89.10;;;;;;5016261;28;20524;-60
2022/11/28 09:40:32;;;;;;;22.00;14.23;;;5.50;89.30;;;;;;5016292;28;20489;-60
2022/11/28 09:43:01;;;;;;;18.17;13.63;;;5.50;89.30;;;;;;5015867;28;20029;-60
2022/11/28 09:45:27;;;;;;;16.50;11.82;;;5.50;89.40;;;;;;5014647;28;20038;-62
2022/11/28 09:48:01;;;;;;;17.67;11.35;;;5.60;89.40;;;;;;5016562;28;20080;-61
2022/11/28 09:50:32;;;;;;;17.30;12.23;;;5.60;89.40;;;;;;5017330;28;20411;-60
2022/11/28 09:53:18;;;;;;;19.70;12.23;;;5.70;89.40;;;;;;4996922;28;20044;-61
2022/11/28 09:56:03;;;;;;;17.88;12.20;;;5.70;89.40;;;;;;5017204;28;20133;-61
2022/11/28 09:58:48;;;;;;;46.13;19.38;;;5.70;89.40;;;;;;5015009;28;20056;-61
2022/11/28 10:01:35;;;;;;;21.23;13.82;;;5.80;89.50;;;;;;5016625;28;20095;-61
2022/11/28 10:04:19;;;;;;;22.35;14.25;;;5.80;89.60;;;;;;5015574;28;20044;-60
2022/11/28 10:07:29;;;;;;;28.88;17.63;;;5.90;89.60;;;;;;5015693;28;20042;-60
2022/11/28 10:09:58;;;;;;;19.48;12.70;;;6.00;89.70;;;;;;5015554;28;20120;-60
2022/11/28 10:12:41;;;;;;;18.00;12.80;;;6.10;89.60;;;;;;5010151;28;20456;-62
2022/11/28 10:15:28;;;;;;;19.45;12.98;;;6.10;89.40;;;;;;5016142;28;20120;-61
2022/11/28 10:18:19;;;;;;;17.08;12.05;;;6.20;89.20;;;;;;5015955;28;20053;-62
2022/11/28 10:20:47;;;;;;;17.63;12.93;;;6.30;89.10;;;;;;5014139;28;20429;-61
2022/11/28 10:23:31;;;;;;;15.90;10.98;;;6.30;89.10;;;;;;5015970;28;20588;-60
2022/11/28 10:26:04;;;;;;;18.58;12.57;;;6.40;89.00;;;;;;5014615;28;20128;-61
2022/11/28 10:28:34;;;;;;;21.27;12.65;;;6.40;88.70;;;;;;5016229;28;20081;-60
2022/11/28 10:31:12;;;;;;;22.10;11.93;;;6.50;88.60;;;;;;5014540;28;20038;-60
2022/11/28 10:33:52;;;;;;;15.70;11.60;;;6.60;88.60;;;;;;5016070;28;20489;-61
2022/11/28 10:36:32;;;;;;;19.40;12.57;;;6.60;88.50;;;;;;5014080;28;20049;-62
2022/11/28 10:39:04;;;;;;;16.92;11.65;;;6.70;88.50;;;;;;5014743;28;20082;-60
2022/11/28 10:42:10;;;;;;;17.95;11.32;;;6.80;88.60;;;;;;5015383;28;20577;-60
2022/11/28 10:44:50;;;;;;;;;;;6.80;89.20;;;;;;5015150;28;20041;-61
2022/11/28 10:47:16;;;;;;;14.60;9.95;;;6.90;88.40;;;;;;5015033;28;19959;-61
2022/11/28 10:50:12;;;;;;;14.63;10.57;;;6.90;88.30;;;;;;5012819;28;20061;-60
2022/11/28 10:52:49;;;;;;;16.33;10.55;;;7.00;88.10;;;;;;5015622;28;20128;-60
2022/11/28 10:55:37;;;;;;;17.10;11.07;;;7.00;88.00;;;;;;5015931;28;20095;-62
2022/11/28 10:58:30;;;;;;;23.73;11.82;;;7.00;88.10;;;;;;5014911;28;20041;-61
2022/11/28 11:00:57;;;;;;;16.67;11.10;;;7.10;88.10;;;;;;5013782;28;20060;-62
2022/11/28 11:03:34;;;;;;;18.63;11.60;;;7.10;88.20;;;;;;5014110;28;20521;-60
2022/11/28 11:06:01;;;;;;;19.42;12.35;;;7.20;88.10;;;;;;5014360;28;20520;-61
2022/11/28 11:08:32;;;;;;;18.00;12.77;;;7.20;88.10;;;;;;5015211;28;20036;-60
2022/11/28 11:11:35;;;;;;;17.23;11.98;;;7.30;88.10;;;;;;5014944;28;20321;-60
2022/11/28 11:14:04;;;;;;;18.52;11.85;;;7.40;87.70;;;;;;5014109;28;20420;-61
2022/11/28 11:16:52;;;;;;;20.80;13.43;;;7.40;87.80;;;;;;5015288;28;20029;-61
2022/11/28 11:19:29;;;;;;;23.15;15.02;;;7.50;87.60;;;;;;5014315;28;20113;-61
2022/11/28 11:22:32;;;;;;;18.60;12.75;;;7.50;87.50;;;;;;5013506;28;20535;-60
2022/11/28 11:25:15;;;;;;;15.10;10.77;;;7.60;87.40;;;;;;5011504;28;20033;-60
2022/11/28 11:27:53;;;;;;;16.90;10.20;;;7.70;87.20;;;;;;5014688;28;20481;-60
2022/11/28 11:30:30;;;;;;;24.40;14.82;;;7.70;87.20;;;;;;5013377;28;20038;-60
2022/11/28 11:32:57;;;;;;;16.10;11.45;;;7.70;86.90;;;;;;5012558;28;20157;-61
2022/11/28 11:35:42;;;;;;;15.38;11.35;;;7.80;87.10;;;;;;5014317;28;20052;-61
2022/11/28 11:38:22;;;;;;;15.98;10.43;;;7.80;87.10;;;;;;5015287;28;20065;-60
2022/11/28 11:40:48;;;;;;;14.07;9.98;;;7.90;86.90;;;;;;5013032;28;20038;-60
2022/11/28 11:43:23;;;;;;;15.35;10.15;;;7.90;86.90;;;;;;5014547;28;20041;-62
2022/11/28 11:46:07;;;;;;;14.38;10.18;;;7.90;86.60;;;;;;5015322;28;20041;-60
2022/11/28 11:48:39;;;;;;;14.48;10.25;;;8.00;86.40;;;;;;5013119;28;20060;-62
2022/11/28 11:51:19;;;;;;;15.02;10.40;;;8.00;86.60;;;;;;5013210;28;20026;-61
2022/11/28 11:53:44;;;;;;;14.07;11.00;;;8.10;86.60;;;;;;5014976;28;20036;-62
2022/11/28 11:56:11;;;;;;;14.50;10.88;;;8.10;86.30;;;;;;5014919;28;20045;-61
2022/11/28 11:58:47;;;;;;;16.33;11.23;;;8.10;86.30;;;;;;5012210;28;20041;-60
2022/11/28 12:01:18;;;;;;;16.85;11.20;;;8.20;86.00;;;;;;5011833;28;20319;-61
2022/11/28 12:03:57;;;;;;;16.67;11.45;;;8.20;86.10;;;;;;5013619;28;20743;-61
2022/11/28 12:06:39;;;;;;;15.75;11.77;;;8.20;86.40;;;;;;5015214;28;20041;-62
2022/11/28 12:09:28;;;;;;;16.92;11.57;;;8.30;86.50;;;;;;5014967;28;20061;-61
2022/11/28 12:12:00;;;;;;;17.33;11.30;;;8.30;86.60;;;;;;5009182;28;20044;-62
2022/11/28 12:14:31;;;;;;;17.50;12.32;;;8.40;86.70;;;;;;5014501;28;20038;-59
2022/11/28 12:17:11;;;;;;;18.95;11.85;;;8.40;86.50;;;;;;5013928;28;20049;-63
2022/11/28 12:20:05;;;;;;;29.85;18.00;;;8.50;86.40;;;;;;5014994;28;20034;-62
2022/11/28 12:22:54;;;;;;;18.38;12.63;;;8.50;86.20;;;;;;5015470;28;20390;-61
2022/11/28 12:25:31;;;;;;;16.00;11.68;;;8.60;86.00;;;;;;5013897;28;20038;-62
2022/11/28 12:28:08;;;;;;;19.73;11.98;;;8.60;86.20;;;;;;5014567;28;20091;-62
2022/11/28 12:30:48;;;;;;;17.42;12.50;;;8.70;86.00;;;;;;5013515;28;20535;-61
2022/11/28 12:33:31;;;;;;;21.52;12.35;;;8.70;85.50;;;;;;5014406;28;20038;-62
2022/11/28 12:36:17;;;;;;;22.38;14.77;;;8.80;85.80;;;;;;5018658;28;20549;-61
2022/11/28 12:39:06;;;;;;;20.95;14.32;;;8.80;85.30;;;;;;5017511;28;20034;-61
2022/11/28 12:41:41;;;;;;;25.05;15.80;;;8.80;85.60;;;;;;4980185;28;20092;-60
2022/11/28 12:44:22;;;;;;;22.63;14.23;;;8.90;85.30;;;;;;5017954;28;20041;-60
2022/11/28 12:47:06;;;;;;;20.10;13.05;;;8.90;85.00;;;;;;5016325;28;20038;-62
2022/11/28 12:49:54;;;;;;;21.73;12.07;;;8.90;85.20;;;;;;5015326;28;20037;-62
2022/11/28 12:52:34;;;;;;;17.95;11.20;;;8.90;84.90;;;;;;5016770;28;20336;-62
2022/11/28 12:55:20;;;;;;;19.23;11.15;;;8.90;85.70;;;;;;5017655;28;20041;-61
2022/11/28 12:57:49;;;;;;;14.98;10.73;;;8.90;84.80;;;;;;5016788;28;20038;-63
2022/11/28 13:00:24;;;;;;;13.55;10.32;;;8.90;85.00;;;;;;5015649;28;20045;-63
2022/11/28 13:03:17;;;;;;;17.75;11.00;;;8.90;84.80;;;;;;5014571;28;20041;-61